Time;durP1;ratioP1;P1;durP2;ratioP2;P2;SDS_P1;SDS_P2;PMS_P1;PMS_P2;Temp;Humidity;BMP_temperature;BMP_pressure;BME280_temperature;BME280_humidity;BME280_pressure;Samples;Min_cycle;Max_cycle;Signal;HPM_P1;HPM_P2
2021/08/24 00:00:31;;;;;;;7.28;1.60;;;17.10;87.60;;;;;;5033700;28;20047;-71
2021/08/24 00:02:58;;;;;;;4.80;1.35;;;17.00;87.40;;;;;;5033539;28;20029;-71
2021/08/24 00:05:31;;;;;;;2.00;1.25;;;17.00;87.50;;;;;;5033521;28;20033;-71
2021/08/24 00:07:57;;;;;;;2.15;1.50;;;17.00;87.40;;;;;;5033726;28;20036;-70
2021/08/24 00:10:29;;;;;;;4.47;1.73;;;17.00;87.50;;;;;;5033424;28;20087;-70
2021/08/24 00:12:54;;;;;;;2.45;1.38;;;16.90;87.70;;;;;;5033366;28;20037;-71
2021/08/24 00:15:21;;;;;;;4.05;1.30;;;16.90;87.50;;;;;;5033232;28;20436;-70
2021/08/24 00:17:46;;;;;;;6.47;1.92;;;16.90;87.90;;;;;;5033077;28;20486;-71
2021/08/24 00:20:13;;;;;;;3.10;1.50;;;16.80;88.00;;;;;;5033385;28;20034;-71
2021/08/24 00:22:40;;;;;;;1.77;1.40;;;16.80;88.00;;;;;;5032767;28;20034;-71
2021/08/24 00:25:08;;;;;;;7.00;1.85;;;16.80;88.10;;;;;;5032897;28;20049;-71
2021/08/24 00:27:34;;;;;;;2.42;1.50;;;16.80;88.10;;;;;;5033126;28;20034;-71
2021/08/24 00:29:59;;;;;;;4.63;1.20;;;16.80;88.30;;;;;;5032855;28;20029;-71
2021/08/24 00:32:25;;;;;;;2.97;1.40;;;16.70;88.60;;;;;;5032959;28;20033;-72
2021/08/24 00:34:50;;;;;;;4.15;1.40;;;16.70;89.20;;;;;;5033315;28;20017;-71
2021/08/24 00:37:16;;;;;;;5.57;1.65;;;16.70;89.00;;;;;;5032752;28;20399;-68
2021/08/24 00:39:41;;;;;;;3.35;1.40;;;16.70;89.50;;;;;;5032816;28;20137;-70
2021/08/24 00:42:14;;;;;;;2.08;1.30;;;16.60;90.00;;;;;;5032555;28;20037;-71
2021/08/24 00:44:39;;;;;;;2.08;1.20;;;16.50;90.10;;;;;;5032477;28;20061;-71
2021/08/24 00:47:08;;;;;;;2.33;1.20;;;16.50;90.40;;;;;;5032893;28;20064;-71
2021/08/24 00:49:34;;;;;;;5.72;1.30;;;16.40;90.50;;;;;;5032459;28;20065;-71
2021/08/24 00:52:08;;;;;;;2.10;1.33;;;16.40;90.60;;;;;;5032660;28;20037;-71
2021/08/24 00:54:35;;;;;;;2.95;1.23;;;16.30;90.40;;;;;;5032368;28;20449;-72
2021/08/24 00:57:07;;;;;;;5.15;1.75;;;16.40;90.60;;;;;;5032191;28;20107;-71
2021/08/24 00:59:33;;;;;;;1.98;1.30;;;16.40;90.40;;;;;;5032306;28;20047;-71
2021/08/24 01:01:58;;;;;;;2.83;1.50;;;16.40;90.10;;;;;;5032623;28;20503;-71
2021/08/24 01:04:26;;;;;;;7.80;1.42;;;16.40;90.00;;;;;;5031996;28;20352;-71
2021/08/24 01:07:00;;;;;;;4.20;1.35;;;16.30;90.10;;;;;;5032648;28;20046;-71
2021/08/24 01:09:35;;;;;;;5.35;1.77;;;16.30;90.10;;;;;;5032314;28;20426;-72
2021/08/24 01:12:27;;;;;;;3.63;1.38;;;16.30;90.10;;;;;;5032338;28;20053;-74
2021/08/24 01:14:55;;;;;;;1.70;1.13;;;16.30;90.20;;;;;;5031960;28;20041;-71
2021/08/24 01:17:31;;;;;;;3.20;1.52;;;16.20;90.40;;;;;;5032050;28;20478;-71
2021/08/24 01:20:25;;;;;;;3.00;1.40;;;16.30;90.40;;;;;;5032618;28;20028;-71
2021/08/24 01:23:13;;;;;;;2.72;1.52;;;16.30;90.40;;;;;;5032250;28;20040;-71
2021/08/24 01:25:49;;;;;;;4.17;1.30;;;16.30;90.40;;;;;;5031996;28;20035;-71
2021/08/24 01:28:24;;;;;;;2.85;1.48;;;16.20;90.50;;;;;;5031876;28;20334;-71
2021/08/24 01:31:23;;;;;;;6.78;1.63;;;16.10;90.50;;;;;;5031646;28;20033;-71
2021/08/24 01:34:15;;;;;;;2.40;1.48;;;16.10;90.50;;;;;;5031741;28;20049;-71
2021/08/24 01:36:48;;;;;;;3.42;1.58;;;16.10;90.60;;;;;;5031753;28;20128;-70
2021/08/24 01:39:48;;;;;;;3.25;1.50;;;16.10;90.60;;;;;;5031817;28;20041;-71
2021/08/24 01:42:25;;;;;;;2.13;1.73;;;16.00;90.60;;;;;;5019768;28;20071;-71
2021/08/24 01:45:17;;;;;;;4.00;1.48;;;16.10;90.60;;;;;;5031682;28;20044;-71
2021/08/24 01:47:53;;;;;;;3.85;1.55;;;16.00;90.70;;;;;;5031370;28;20521;-71
2021/08/24 01:51:00;;;;;;;1.77;1.38;;;16.00;90.70;;;;;;5031217;28;20062;-71
2021/08/24 01:53:38;;;;;;;3.55;1.60;;;16.00;90.70;;;;;;5031399;28;20112;-71
2021/08/24 01:56:28;;;;;;;9.80;1.50;;;15.90;90.80;;;;;;5030804;28;20120;-71
2021/08/24 01:59:01;;;;;;;3.40;1.40;;;15.90;90.80;;;;;;5031174;28;20053;-72
2021/08/24 02:01:46;;;;;;;3.05;2.30;;;15.80;90.90;;;;;;5030991;28;20036;-71
2021/08/24 02:04:18;;;;;;;5.10;1.80;;;15.70;91.00;;;;;;5031146;28;20037;-71
2021/08/24 02:06:46;;;;;;;2.30;1.35;;;15.70;91.30;;;;;;5031105;28;20029;-71
2021/08/24 02:09:17;;;;;;;3.03;1.63;;;15.80;91.00;;;;;;5031315;28;20034;-71
2021/08/24 02:11:44;;;;;;;5.25;1.70;;;15.70;91.10;;;;;;5031257;28;20463;-72
2021/08/24 02:14:14;;;;;;;6.78;2.10;;;15.70;91.10;;;;;;5030870;28;20040;-72
2021/08/24 02:16:41;;;;;;;2.30;1.60;;;15.70;91.00;;;;;;5031268;28;20520;-72
2021/08/24 02:19:16;;;;;;;2.78;1.45;;;15.60;91.20;;;;;;5030786;28;20391;-72
2021/08/24 02:21:53;;;;;;;2.72;1.60;;;15.50;91.40;;;;;;5029111;28;20042;-71
2021/08/24 02:24:24;;;;;;;2.55;1.67;;;15.50;91.40;;;;;;5031127;28;20040;-72
2021/08/24 02:26:51;;;;;;;6.68;1.63;;;15.50;91.50;;;;;;5031269;28;20048;-72
2021/08/24 02:29:17;;;;;;;9.85;2.10;;;15.50;91.50;;;;;;5031581;28;20047;-72
2021/08/24 02:32:00;;;;;;;4.50;1.98;;;15.50;91.40;;;;;;5031160;28;20036;-72
2021/08/24 02:34:52;;;;;;;5.35;1.98;;;15.40;91.60;;;;;;5031127;28;20147;-71
2021/08/24 02:37:20;;;;;;;6.78;1.80;;;15.40;91.60;;;;;;5030848;28;20539;-71
2021/08/24 02:39:48;;;;;;;;;;;15.40;91.80;;;;;;5031325;28;20033;-72
2021/08/24 02:42:23;;;;;;;5.30;1.85;;;15.30;91.90;;;;;;5030951;28;19955;-71
2021/08/24 02:44:56;;;;;;;2.65;1.50;;;15.30;91.80;;;;;;5031107;28;20042;-72
2021/08/24 02:47:23;;;;;;;8.27;2.03;;;15.30;91.90;;;;;;5031109;28;20033;-71
2021/08/24 02:49:51;;;;;;;3.25;1.60;;;15.20;92.00;;;;;;5031410;28;20044;-71
2021/08/24 02:52:17;;;;;;;7.07;1.98;;;15.20;91.90;;;;;;5030851;28;20681;-71
2021/08/24 02:54:49;;;;;;;2.63;1.67;;;15.20;92.10;;;;;;5030932;28;20045;-71
2021/08/24 02:57:15;;;;;;;2.03;1.40;;;15.20;91.90;;;;;;5030594;28;20450;-71
2021/08/24 02:59:41;;;;;;;5.38;1.83;;;15.20;92.00;;;;;;5030725;28;20137;-71
2021/08/24 03:02:08;;;;;;;4.75;1.63;;;15.20;92.20;;;;;;5031090;28;20021;-71
2021/08/24 03:04:34;;;;;;;9.00;2.17;;;15.20;92.30;;;;;;5030870;28;20114;-70
2021/08/24 03:07:05;;;;;;;4.82;2.10;;;15.20;91.90;;;;;;5030666;28;20321;-70
2021/08/24 03:09:34;;;;;;;4.30;2.22;;;15.10;92.20;;;;;;5030953;28;20053;-70
2021/08/24 03:12:30;;;;;;;3.33;2.00;;;15.00;92.20;;;;;;5030689;28;20030;-71
2021/08/24 03:15:29;;;;;;;2.70;1.85;;;15.00;92.20;;;;;;5030487;28;20484;-71
2021/08/24 03:17:59;;;;;;;4.45;2.05;;;15.00;92.20;;;;;;5025986;28;20560;-71
2021/08/24 03:20:30;;;;;;;4.07;1.77;;;15.00;92.20;;;;;;5030504;28;20021;-71
2021/08/24 03:22:57;;;;;;;4.55;1.80;;;15.00;92.30;;;;;;5030140;28;20024;-71
2021/08/24 03:25:23;;;;;;;3.77;1.90;;;14.90;92.20;;;;;;5030489;28;20471;-70
2021/08/24 03:27:52;;;;;;;2.88;1.60;;;14.90;92.40;;;;;;5034384;28;20030;-71
2021/08/24 03:30:18;;;;;;;;;;;14.80;92.40;;;;;;5034652;28;20041;-71
2021/08/24 03:32:44;;;;;;;5.55;2.33;;;14.80;92.90;;;;;;5034229;28;20033;-71
2021/08/24 03:35:11;;;;;;;4.68;1.88;;;14.80;92.60;;;;;;5034494;28;20060;-71
2021/08/24 03:37:37;;;;;;;3.13;1.80;;;14.90;92.60;;;;;;5034264;28;20025;-71
2021/08/24 03:40:05;;;;;;;3.63;2.30;;;14.90;92.70;;;;;;5033981;28;20038;-71
2021/08/24 03:42:30;;;;;;;4.50;1.90;;;14.70;92.70;;;;;;5034028;28;20038;-70
2021/08/24 03:44:56;;;;;;;3.88;1.70;;;14.80;92.80;;;;;;5033944;28;20508;-70
2021/08/24 03:47:21;;;;;;;6.00;2.08;;;14.70;92.80;;;;;;5032806;28;20475;-71
2021/08/24 03:49:47;;;;;;;2.78;1.95;;;14.70;92.90;;;;;;5034385;28;20052;-71
2021/08/24 03:52:12;;;;;;;3.20;1.70;;;14.70;92.80;;;;;;5033763;28;20036;-71
2021/08/24 03:54:38;;;;;;;6.65;1.92;;;14.70;92.80;;;;;;5034029;28;20037;-71
2021/08/24 03:57:04;;;;;;;7.63;1.58;;;14.70;92.80;;;;;;5033927;28;20095;-70
2021/08/24 03:59:30;;;;;;;3.15;1.80;;;14.60;92.80;;;;;;5032735;28;20053;-71
2021/08/24 04:01:55;;;;;;;5.53;2.30;;;14.60;93.00;;;;;;5033975;28;20575;-70
2021/08/24 04:04:21;;;;;;;3.50;1.90;;;14.60;92.90;;;;;;5032752;28;20049;-71
2021/08/24 04:06:46;;;;;;;4.00;1.90;;;14.60;92.90;;;;;;5033671;28;20325;-71
2021/08/24 04:09:12;;;;;;;3.95;1.95;;;14.60;93.00;;;;;;5033794;28;20048;-72
2021/08/24 04:11:38;;;;;;;7.13;2.60;;;14.50;93.10;;;;;;5032637;28;20022;-72
2021/08/24 04:14:03;;;;;;;7.95;2.22;;;14.50;93.00;;;;;;5034091;28;20029;-71
2021/08/24 04:16:29;;;;;;;4.07;1.80;;;14.60;93.10;;;;;;5033438;28;20099;-71
2021/08/24 04:18:54;;;;;;;4.43;1.80;;;14.50;93.10;;;;;;5033458;28;20033;-71
2021/08/24 04:21:20;;;;;;;7.18;2.42;;;14.50;93.10;;;;;;5033411;28;20052;-71
2021/08/24 04:23:48;;;;;;;5.45;2.38;;;14.40;93.30;;;;;;5033142;28;20037;-71
2021/08/24 04:26:15;;;;;;;3.53;2.08;;;14.40;93.20;;;;;;5033760;28;20048;-71
2021/08/24 04:28:41;;;;;;;6.93;2.13;;;14.50;93.10;;;;;;5033136;28;20033;-69
2021/08/24 04:31:10;;;;;;;4.90;2.03;;;14.50;93.10;;;;;;5033229;28;20030;-71
2021/08/24 04:33:36;;;;;;;5.32;1.80;;;14.50;93.00;;;;;;5033110;28;20053;-71
2021/08/24 04:36:03;;;;;;;7.32;2.35;;;14.50;93.00;;;;;;5033141;28;20447;-70
2021/08/24 04:38:29;;;;;;;8.95;2.47;;;14.50;93.00;;;;;;5032120;28;20025;-71
2021/08/24 04:40:55;;;;;;;3.15;2.10;;;14.50;93.20;;;;;;5033292;28;20513;-71
2021/08/24 04:43:21;;;;;;;6.18;2.35;;;14.50;93.00;;;;;;5033002;28;20045;-72
2021/08/24 04:45:47;;;;;;;6.32;2.47;;;14.40;93.10;;;;;;5032677;28;20415;-72
2021/08/24 04:48:13;;;;;;;5.47;2.42;;;14.40;93.10;;;;;;5033151;28;20033;-72
2021/08/24 04:50:39;;;;;;;6.78;2.30;;;14.40;93.00;;;;;;5031793;28;20376;-71
2021/08/24 04:53:05;;;;;;;4.25;2.30;;;14.40;93.10;;;;;;5033038;28;20028;-71
2021/08/24 04:55:31;;;;;;;5.20;2.22;;;14.40;93.10;;;;;;5032672;28;20419;-69
2021/08/24 04:57:57;;;;;;;4.43;2.67;;;14.40;93.00;;;;;;5032334;28;20520;-70
2021/08/24 05:00:22;;;;;;;2.83;1.83;;;14.30;93.20;;;;;;5032579;28;20036;-69
2021/08/24 05:02:48;;;;;;;4.13;1.80;;;14.30;93.20;;;;;;5032442;28;20124;-69
2021/08/24 05:05:13;;;;;;;8.48;2.25;;;14.30;93.30;;;;;;5032900;28;20595;-69
2021/08/24 05:07:39;;;;;;;5.55;2.15;;;14.30;93.10;;;;;;5032782;28;20108;-70
2021/08/24 05:10:07;;;;;;;5.72;2.22;;;14.30;93.10;;;;;;5032323;28;20426;-70
2021/08/24 05:12:32;;;;;;;4.95;2.33;;;14.30;93.20;;;;;;5032291;28;20076;-71
2021/08/24 05:14:58;;;;;;;7.40;2.30;;;14.30;93.10;;;;;;5031355;28;20049;-70
2021/08/24 05:17:23;;;;;;;4.30;2.50;;;14.30;93.10;;;;;;5030936;28;20057;-70
2021/08/24 05:19:49;;;;;;;4.18;1.95;;;14.30;93.20;;;;;;5032625;28;20037;-71
2021/08/24 05:22:15;;;;;;;3.75;1.92;;;14.40;93.30;;;;;;5032131;28;20037;-71
2021/08/24 05:24:41;;;;;;;10.13;2.15;;;14.40;93.10;;;;;;5032158;28;20133;-71
2021/08/24 05:27:07;;;;;;;9.18;2.33;;;14.40;93.40;;;;;;5030996;28;20072;-71
2021/08/24 05:29:33;;;;;;;4.00;2.30;;;14.40;93.40;;;;;;5032053;28;20416;-72
2021/08/24 05:31:58;;;;;;;5.93;3.45;;;14.40;93.30;;;;;;5032382;28;20101;-71
2021/08/24 05:34:24;;;;;;;5.72;2.38;;;14.40;93.30;;;;;;5032017;28;20414;-71
2021/08/24 05:36:49;;;;;;;6.05;2.40;;;14.40;93.20;;;;;;5031793;28;20747;-71
2021/08/24 05:39:15;;;;;;;7.00;2.10;;;14.40;93.30;;;;;;5031836;28;20032;-71
2021/08/24 05:41:41;;;;;;;7.15;2.17;;;14.50;93.20;;;;;;5031589;28;20037;-71
2021/08/24 05:44:07;;;;;;;7.68;2.60;;;14.50;93.40;;;;;;5032149;28;20108;-71
2021/08/24 05:46:33;;;;;;;5.45;2.90;;;14.50;93.30;;;;;;5031516;28;20029;-71
2021/08/24 05:48:59;;;;;;;4.85;2.30;;;14.60;93.20;;;;;;5031460;28;20045;-71
2021/08/24 05:51:25;;;;;;;7.53;2.80;;;14.60;93.50;;;;;;5031511;28;20037;-71
2021/08/24 05:53:51;;;;;;;7.55;3.00;;;14.60;93.40;;;;;;5031898;28;20037;-71
2021/08/24 05:56:20;;;;;;;10.70;2.53;;;14.60;93.50;;;;;;5031762;28;20018;-71
2021/08/24 05:58:46;;;;;;;4.55;2.28;;;14.70;93.70;;;;;;5031420;28;20498;-71
2021/08/24 06:01:21;;;;;;;5.32;2.40;;;14.80;93.60;;;;;;5031260;28;20037;-71
2021/08/24 06:03:46;;;;;;;7.93;2.58;;;14.80;93.50;;;;;;5031381;28;20029;-69
2021/08/24 06:06:22;;;;;;;10.45;3.03;;;14.80;93.50;;;;;;5031435;28;20044;-71
2021/08/24 06:08:48;;;;;;;4.78;2.17;;;14.90;93.60;;;;;;5031409;28;20029;-70
2021/08/24 06:11:19;;;;;;;4.10;1.88;;;15.00;93.50;;;;;;5031695;28;20117;-71
2021/08/24 06:13:45;;;;;;;5.50;1.95;;;15.00;93.50;;;;;;5029770;28;20264;-71
2021/08/24 06:16:12;;;;;;;7.43;2.22;;;15.10;93.70;;;;;;5030978;28;20037;-72
2021/08/24 06:18:38;;;;;;;14.18;3.30;;;15.10;93.60;;;;;;5031450;28;20029;-75
2021/08/24 06:21:03;;;;;;;5.82;2.15;;;15.20;93.70;;;;;;5031041;28;20114;-71
2021/08/24 06:23:29;;;;;;;5.03;2.10;;;15.20;93.70;;;;;;5030936;28;20057;-73
2021/08/24 06:25:54;;;;;;;9.10;2.75;;;15.30;93.80;;;;;;5030438;28;20022;-70
2021/08/24 06:28:20;;;;;;;5.18;1.92;;;15.30;93.90;;;;;;5031300;28;20033;-74
2021/08/24 06:30:48;;;;;;;6.00;2.38;;;15.40;93.80;;;;;;5029882;28;20026;-72
2021/08/24 06:33:14;;;;;;;3.92;2.28;;;15.40;93.90;;;;;;5031070;28;20030;-70
2021/08/24 06:35:39;;;;;;;8.48;2.17;;;15.50;94.10;;;;;;5029959;28;20033;-73
2021/08/24 06:38:05;;;;;;;9.18;4.05;;;15.60;93.90;;;;;;5030466;28;20119;-74
2021/08/24 06:40:31;;;;;;;4.97;2.47;;;15.60;93.80;;;;;;5030688;28;20048;-73
2021/08/24 06:42:56;;;;;;;10.82;2.80;;;15.70;94.00;;;;;;5030996;28;20116;-70
2021/08/24 06:45:27;;;;;;;7.13;2.78;;;15.70;93.90;;;;;;5030834;28;20033;-70
2021/08/24 06:47:53;;;;;;;5.97;2.10;;;15.80;93.90;;;;;;5030935;28;20471;-74
2021/08/24 06:50:19;;;;;;;6.03;2.15;;;15.80;93.90;;;;;;5030746;28;20414;-73
2021/08/24 06:52:45;;;;;;;5.78;2.60;;;15.90;94.10;;;;;;5030442;28;20374;-72
2021/08/24 06:55:12;;;;;;;7.72;2.08;;;15.90;94.00;;;;;;5030712;28;20036;-73
2021/08/24 06:57:38;;;;;;;4.32;2.30;;;16.00;94.10;;;;;;5030674;28;20050;-74
2021/08/24 07:00:07;;;;;;;3.38;2.03;;;16.00;94.20;;;;;;5030765;28;20492;-72
2021/08/24 07:02:32;;;;;;;5.55;2.10;;;16.10;94.10;;;;;;5032901;28;20033;-77
2021/08/24 07:04:58;;;;;;;4.28;2.22;;;16.20;94.00;;;;;;5034005;28;20044;-73
2021/08/24 07:07:24;;;;;;;3.83;1.70;;;16.20;94.00;;;;;;5034658;28;20053;-72
2021/08/24 07:09:51;;;;;;;8.50;1.65;;;16.20;93.90;;;;;;5034389;28;20026;-74
2021/08/24 07:12:17;;;;;;;3.72;1.80;;;16.30;93.90;;;;;;5034763;28;20038;-83
2021/08/24 07:14:43;;;;;;;3.35;1.98;;;16.30;94.00;;;;;;5033839;28;20037;-85
2021/08/24 07:17:08;;;;;;;6.10;2.05;;;16.30;93.90;;;;;;5035071;28;20032;-71
2021/08/24 07:19:34;;;;;;;10.98;2.20;;;16.40;94.10;;;;;;5034394;28;20040;-73
2021/08/24 07:22:01;;;;;;;7.72;2.28;;;16.50;93.90;;;;;;5034079;28;20042;-71
2021/08/24 07:24:27;;;;;;;5.45;2.08;;;16.50;93.90;;;;;;5034054;28;20033;-74
2021/08/24 07:26:53;;;;;;;4.57;1.85;;;16.60;93.90;;;;;;5034172;28;20036;-75
2021/08/24 07:29:18;;;;;;;3.58;1.70;;;16.60;93.90;;;;;;5034632;28;20036;-74
2021/08/24 07:31:44;;;;;;;7.22;2.17;;;16.60;93.90;;;;;;5034635;28;20379;-75
2021/08/24 07:34:10;;;;;;;2.60;1.52;;;16.70;93.80;;;;;;5034920;28;20108;-76
2021/08/24 07:36:36;;;;;;;4.50;2.05;;;16.80;93.90;;;;;;5034307;28;20470;-79
2021/08/24 07:39:02;;;;;;;7.20;1.70;;;16.90;93.90;;;;;;5034185;28;20041;-75
2021/08/24 07:41:28;;;;;;;6.20;1.73;;;16.90;93.70;;;;;;5032582;28;20034;-74
2021/08/24 07:43:53;;;;;;;5.60;1.60;;;17.10;93.70;;;;;;5034162;28;20035;-73
2021/08/24 07:46:19;;;;;;;4.07;1.40;;;17.20;93.70;;;;;;5033781;28;20460;-71
2021/08/24 07:48:45;;;;;;;3.00;1.02;;;17.20;93.60;;;;;;5033921;28;20483;-71
2021/08/24 07:51:11;;;;;;;5.90;1.23;;;17.30;93.60;;;;;;5033731;28;20043;-73
2021/08/24 07:53:37;;;;;;;4.90;1.38;;;17.40;93.20;;;;;;5033767;28;20101;-75
2021/08/24 07:56:06;;;;;;;9.30;3.45;;;17.40;93.30;;;;;;5033182;28;20029;-75
2021/08/24 07:58:31;;;;;;;3.17;1.50;;;17.50;93.30;;;;;;5033258;28;20133;-73
2021/08/24 08:00:57;;;;;;;4.68;1.40;;;17.60;93.40;;;;;;5034336;28;20116;-76
2021/08/24 08:03:23;;;;;;;3.47;1.67;;;17.70;93.50;;;;;;5034313;28;20120;-76
2021/08/24 08:05:48;;;;;;;9.95;2.67;;;17.80;93.20;;;;;;5034191;28;20346;-75
2021/08/24 08:08:14;;;;;;;4.72;1.77;;;17.90;93.20;;;;;;5034750;28;20037;-75
2021/08/24 08:10:40;;;;;;;7.43;1.83;;;18.10;93.30;;;;;;5034311;28;20422;-75
2021/08/24 08:13:06;;;;;;;1.65;1.13;;;18.40;92.90;;;;;;5033246;28;20034;-76
2021/08/24 08:15:33;;;;;;;5.90;1.65;;;18.80;92.70;;;;;;5033015;28;20044;-74
2021/08/24 08:18:06;;;;;;;6.22;2.85;;;19.20;92.60;;;;;;5033122;28;20030;-74
2021/08/24 08:20:34;;;;;;;8.13;4.07;;;19.50;91.60;;;;;;5033332;28;20045;-74
2021/08/24 08:23:03;;;;;;;5.17;2.20;;;19.80;91.20;;;;;;5033199;28;20033;-75
2021/08/24 08:25:29;;;;;;;7.60;1.58;;;20.00;91.60;;;;;;5034196;28;20054;-76
2021/08/24 08:27:55;;;;;;;5.70;1.70;;;20.60;90.90;;;;;;5034117;28;20025;-76
2021/08/24 08:30:21;;;;;;;11.68;2.00;;;21.40;90.20;;;;;;5033793;28;20414;-75
2021/08/24 08:32:46;;;;;;;3.97;1.52;;;21.80;88.60;;;;;;5032874;28;20087;-72
2021/08/24 08:35:15;;;;;;;5.10;2.80;;;22.50;87.80;;;;;;5034347;28;20458;-74
2021/08/24 08:37:42;;;;;;;5.72;3.90;;;22.90;86.00;;;;;;5033624;28;20044;-72
2021/08/24 08:40:09;;;;;;;8.40;2.67;;;23.80;84.50;;;;;;5033503;28;20053;-73
2021/08/24 08:42:37;;;;;;;4.28;1.67;;;24.60;81.60;;;;;;5033953;28;20065;-72
2021/08/24 08:45:36;;;;;;;2.15;1.30;;;25.00;77.80;;;;;;5033640;28;20034;-75
2021/08/24 08:48:11;;;;;;;3.72;1.50;;;24.70;76.40;;;;;;5032953;28;20029;-74
2021/08/24 08:50:57;;;;;;;2.40;1.30;;;25.00;76.60;;;;;;5033497;28;20049;-74
2021/08/24 08:53:42;;;;;;;5.90;1.45;;;25.20;75.30;;;;;;5033585;28;20036;-78
2021/08/24 08:56:31;;;;;;;2.00;1.00;;;25.60;75.40;;;;;;5033959;28;20049;-75
2021/08/24 08:59:13;;;;;;;2.05;1.20;;;25.40;73.00;;;;;;5013932;28;20058;-82
2021/08/24 09:02:12;;;;;;;3.13;1.10;;;25.70;73.50;;;;;;5013432;28;20069;-75
2021/08/24 09:04:43;;;;;;;1.27;0.70;;;25.40;72.50;;;;;;5012335;28;20033;-73
2021/08/24 09:07:17;;;;;;;5.60;2.00;;;25.30;72.20;;;;;;5013461;28;20357;-74
2021/08/24 09:09:43;;;;;;;9.95;5.45;;;25.50;72.20;;;;;;5013724;28;20192;-75
2021/08/24 09:12:10;;;;;;;5.55;2.60;;;25.30;71.60;;;;;;5013417;28;20113;-74
2021/08/24 09:14:45;;;;;;;2.65;1.17;;;25.20;71.30;;;;;;5013559;28;20022;-75
2021/08/24 09:17:30;;;;;;;1.67;1.08;;;24.80;70.20;;;;;;5013789;28;20436;-73
2021/08/24 09:20:06;;;;;;;4.90;1.75;;;24.50;70.50;;;;;;5033307;28;20053;-73
2021/08/24 09:22:32;;;;;;;1.60;0.98;;;24.30;72.40;;;;;;5032739;28;20037;-75
2021/08/24 09:24:57;;;;;;;6.72;1.88;;;24.20;71.90;;;;;;5032680;28;20045;-73
2021/08/24 09:27:43;;;;;;;2.22;0.95;;;23.90;71.70;;;;;;5032954;28;20044;-73
2021/08/24 09:30:10;;;;;;;4.10;1.83;;;24.00;72.00;;;;;;5033011;28;20467;-72
2021/08/24 09:32:36;;;;;;;2.92;1.40;;;24.40;72.20;;;;;;5030568;28;20097;-70
2021/08/24 09:35:27;;;;;;;3.63;0.90;;;24.40;70.90;;;;;;5032563;28;20034;-70
2021/08/24 09:37:53;;;;;;;1.80;1.00;;;24.60;71.00;;;;;;5035100;28;20542;-70
2021/08/24 09:40:39;;;;;;;3.30;0.90;;;25.10;69.70;;;;;;5032917;28;20029;-72
2021/08/24 09:43:35;;;;;;;1.90;0.95;;;24.90;68.20;;;;;;5032959;28;20033;-71
2021/08/24 09:46:10;;;;;;;11.02;7.63;;;24.60;67.90;;;;;;5032932;28;20064;-71
2021/08/24 09:48:54;;;;;;;4.68;3.38;;;24.50;70.10;;;;;;5032543;28;20028;-73
2021/08/24 09:51:39;;;;;;;2.22;1.17;;;25.20;70.20;;;;;;5032610;28;20039;-73
2021/08/24 09:54:34;;;;;;;2.42;0.73;;;25.80;66.70;;;;;;5032754;28;20029;-72
2021/08/24 09:57:15;;;;;;;4.28;0.77;;;26.00;65.80;;;;;;5025516;28;20050;-72
2021/08/24 09:59:47;;;;;;;1.70;0.93;;;26.40;64.80;;;;;;5016232;28;20388;-72
2021/08/24 10:02:35;;;;;;;4.07;1.02;;;27.00;63.80;;;;;;5032528;28;20468;-73
2021/08/24 10:05:02;;;;;;;3.08;1.33;;;27.40;62.60;;;;;;5032880;28;20459;-74
2021/08/24 10:07:35;;;;;;;1.23;0.93;;;28.00;62.70;;;;;;5032580;28;20095;-74
2021/08/24 10:10:03;;;;;;;3.17;1.30;;;28.60;59.30;;;;;;5032354;28;20026;-73
2021/08/24 10:12:33;;;;;;;2.22;1.25;;;28.60;58.80;;;;;;5032204;28;20029;-73
2021/08/24 10:15:17;;;;;;;3.55;1.88;;;28.60;58.60;;;;;;5032433;28;20117;-72
2021/08/24 10:17:44;;;;;;;4.18;1.50;;;28.30;57.30;;;;;;5032245;28;20033;-73
2021/08/24 10:20:32;;;;;;;5.43;1.25;;;28.00;58.90;;;;;;5032577;28;20029;-73
2021/08/24 10:23:00;;;;;;;2.30;1.00;;;28.60;58.50;;;;;;5012729;28;20117;-73
2021/08/24 10:25:31;;;;;;;3.40;1.10;;;28.70;58.00;;;;;;5029612;28;20543;-73
2021/08/24 10:28:25;;;;;;;1.45;0.70;;;28.80;57.90;;;;;;5032120;28;20044;-73
2021/08/24 10:30:55;;;;;;;1.48;0.90;;;28.90;56.20;;;;;;5031710;28;20030;-73
2021/08/24 10:33:31;;;;;;;4.10;1.00;;;29.20;56.00;;;;;;5030477;28;20033;-73
2021/08/24 10:36:18;;;;;;;2.33;1.00;;;29.00;55.80;;;;;;5031056;28;20107;-74
2021/08/24 10:38:59;;;;;;;1.83;0.95;;;29.20;55.00;;;;;;5032085;28;20401;-73
2021/08/24 10:41:43;;;;;;;2.85;1.30;;;29.10;54.60;;;;;;5031737;28;20033;-75
2021/08/24 10:44:23;;;;;;;1.08;0.82;;;29.00;53.60;;;;;;5032517;28;20034;-71
2021/08/24 10:47:04;;;;;;;3.85;1.40;;;28.40;54.30;;;;;;5012343;28;20030;-72
2021/08/24 10:49:30;;;;;;;4.82;1.02;;;28.20;54.70;;;;;;5029010;28;20056;-74
2021/08/24 10:52:09;;;;;;;2.05;0.80;;;28.10;54.60;;;;;;5031138;28;20191;-75
2021/08/24 10:55:03;;;;;;;2.75;1.15;;;28.10;55.00;;;;;;5030860;28;20045;-75
2021/08/24 10:57:50;;;;;;;2.28;0.98;;;27.70;55.40;;;;;;5019898;28;20120;-71
2021/08/24 11:00:40;;;;;;;2.60;1.10;;;27.50;55.50;;;;;;5018553;28;20049;-74
2021/08/24 11:03:22;;;;;;;2.75;1.73;;;27.30;55.50;;;;;;5030255;28;20376;-70
2021/08/24 11:05:59;;;;;;;2.80;1.25;;;26.90;56.20;;;;;;5030485;28;20371;-72
2021/08/24 11:09:02;;;;;;;2.22;1.00;;;26.60;56.50;;;;;;5030186;28;20405;-73
2021/08/24 11:11:55;;;;;;;3.85;1.27;;;26.00;57.20;;;;;;5030515;28;20395;-72
2021/08/24 11:14:35;;;;;;;4.45;1.13;;;25.70;58.10;;;;;;5046283;28;20018;-72
2021/08/24 11:17:25;;;;;;;10.38;1.83;;;25.70;58.10;;;;;;5030819;28;20096;-72
2021/08/24 11:20:08;;;;;;;2.58;0.90;;;25.50;57.80;;;;;;5010578;28;20038;-72
2021/08/24 11:22:57;;;;;;;2.25;0.93;;;25.20;57.90;;;;;;5029520;28;20029;-71
2021/08/24 11:25:23;;;;;;;4.85;1.50;;;25.10;58.10;;;;;;5021664;28;20033;-72
2021/08/24 11:28:08;;;;;;;3.88;1.40;;;24.90;58.00;;;;;;5009703;28;20026;-71
2021/08/24 11:31:04;;;;;;;2.10;1.17;;;24.90;57.60;;;;;;5010771;28;20099;-71
2021/08/24 11:33:39;;;;;;;2.22;1.27;;;24.80;57.40;;;;;;5010819;28;20065;-70
2021/08/24 11:36:36;;;;;;;2.20;0.95;;;24.70;57.60;;;;;;5010383;28;20438;-72
2021/08/24 11:39:27;;;;;;;3.60;1.30;;;24.60;58.60;;;;;;5009205;28;20429;-72
2021/08/24 11:41:59;;;;;;;1.75;1.00;;;24.70;58.40;;;;;;5010527;28;20038;-71
2021/08/24 11:44:37;;;;;;;3.65;1.40;;;24.80;58.50;;;;;;5009511;28;20065;-71
2021/08/24 11:47:11;;;;;;;4.25;1.40;;;24.80;57.70;;;;;;5011997;28;20026;-71
2021/08/24 11:49:36;;;;;;;2.53;1.38;;;24.90;57.50;;;;;;5014088;28;20109;-72
2021/08/24 11:52:20;;;;;;;1.65;0.98;;;24.60;57.90;;;;;;5013881;28;20579;-73
2021/08/24 11:55:18;;;;;;;2.30;1.17;;;24.60;58.20;;;;;;5013896;28;20034;-71
2021/08/24 11:57:54;;;;;;;3.20;1.35;;;24.70;58.50;;;;;;5013634;28;20050;-75
2021/08/24 12:00:20;;;;;;;1.92;1.20;;;24.70;59.30;;;;;;5013564;28;20045;-77
2021/08/24 12:02:49;;;;;;;2.70;1.33;;;24.80;59.30;;;;;;5013618;28;20060;-74
2021/08/24 12:05:24;;;;;;;1.85;1.30;;;24.70;59.80;;;;;;5012974;28;20025;-74
2021/08/24 12:08:04;;;;;;;3.08;1.67;;;24.60;58.20;;;;;;5013650;28;20038;-74
2021/08/24 12:11:07;;;;;;;3.65;1.65;;;24.60;58.90;;;;;;5013766;28;20038;-75
2021/08/24 12:13:38;;;;;;;2.97;1.52;;;24.40;59.00;;;;;;5012523;28;20380;-76
2021/08/24 12:16:31;;;;;;;2.78;1.33;;;24.40;58.90;;;;;;5013624;28;20041;-76
2021/08/24 12:19:11;;;;;;;3.42;1.48;;;24.20;59.50;;;;;;5014547;28;20234;-77
2021/08/24 12:22:26;;;;;;;2.90;1.50;;;24.30;59.50;;;;;;5013360;28;20168;-75
2021/08/24 12:25:14;;;;;;;2.58;1.73;;;24.40;59.10;;;;;;5032590;28;20117;-75
2021/08/24 12:28:04;;;;;;;4.28;2.10;;;24.40;58.40;;;;;;5032165;28;20060;-71
2021/08/24 12:30:52;;;;;;;3.22;1.52;;;24.50;58.30;;;;;;5032742;28;20025;-72
2021/08/24 12:33:35;;;;;;;2.60;1.50;;;24.40;57.80;;;;;;5032988;28;20097;-73
2021/08/24 12:36:23;;;;;;;3.90;2.08;;;24.40;57.70;;;;;;5033011;28;20029;-73
2021/08/24 12:38:58;;;;;;;4.65;2.17;;;24.30;57.30;;;;;;5032754;28;20127;-74
2021/08/24 12:41:35;;;;;;;4.18;2.30;;;24.40;57.60;;;;;;5032641;28;20447;-75
2021/08/24 12:44:13;;;;;;;5.85;2.17;;;24.40;57.40;;;;;;5032976;28;20013;-74
2021/08/24 12:46:39;;;;;;;;;;;24.30;57.20;;;;;;5033086;28;20049;-73
2021/08/24 12:49:17;;;;;;;6.75;2.35;;;24.40;57.60;;;;;;5032650;28;20301;-78
2021/08/24 12:51:53;;;;;;;4.15;2.55;;;24.30;57.90;;;;;;5032462;28;20053;-77
2021/08/24 12:54:23;;;;;;;3.83;1.98;;;24.30;57.60;;;;;;5048101;28;20033;-76
2021/08/24 12:57:09;;;;;;;10.85;2.47;;;24.30;58.20;;;;;;5032579;28;20033;-76
2021/08/24 12:59:38;;;;;;;6.40;2.15;;;24.40;58.60;;;;;;5031707;28;20044;-75
2021/08/24 13:02:11;;;;;;;5.20;2.40;;;24.40;58.30;;;;;;5032567;28;20033;-72
2021/08/24 13:04:38;;;;;;;3.80;2.20;;;24.20;57.60;;;;;;5032511;28;20029;-78
2021/08/24 13:07:19;;;;;;;4.85;2.33;;;24.30;57.70;;;;;;5029858;28;20047;-73
2021/08/24 13:09:49;;;;;;;6.13;2.92;;;24.30;57.50;;;;;;5012928;28;20044;-72
2021/08/24 13:12:18;;;;;;;6.47;2.78;;;24.30;57.30;;;;;;5012916;28;20092;-74
2021/08/24 13:14:45;;;;;;;8.82;2.92;;;24.30;57.90;;;;;;5012932;28;20034;-74